sensor_id;sensor_type;location;lat;lon;timestamp;pressure;altitude;pressure_sealevel;temperature;humidity
62634;BME280;48704;50.534;6.442;2022-08-30T00:01:09;95930.47;;;13.42;73.79
62634;BME280;48704;50.534;6.442;2022-08-30T00:03:39;95938.75;;;13.51;73.49
62634;BME280;48704;50.534;6.442;2022-08-30T00:06:10;95926.56;;;13.94;70.28
62634;BME280;48704;50.534;6.442;2022-08-30T00:08:37;95929.44;;;14.26;69.40
62634;BME280;48704;50.534;6.442;2022-08-30T00:11:06;95934.63;;;14.33;69.10
62634;BME280;48704;50.534;6.442;2022-08-30T00:13:35;95935.03;;;14.46;67.75
62634;BME280;48704;50.534;6.442;2022-08-30T00:16:00;95933.34;;;14.08;69.44
62634;BME280;48704;50.534;6.442;2022-08-30T00:18:27;95939.88;;;13.99;70.04
62634;BME280;48704;50.534;6.442;2022-08-30T00:20:52;95939.59;;;13.77;71.03
62634;BME280;48704;50.534;6.442;2022-08-30T00:23:20;95932.44;;;13.76;70.85
62634;BME280;48704;50.534;6.442;2022-08-30T00:25:46;95932.44;;;13.76;70.97
62634;BME280;48704;50.534;6.442;2022-08-30T00:28:12;95930.41;;;13.97;69.76
62634;BME280;48704;50.534;6.442;2022-08-30T00:30:39;95926.69;;;14.31;68.87
62634;BME280;48704;50.534;6.442;2022-08-30T00:33:08;95930.31;;;14.12;69.28
62634;BME280;48704;50.534;6.442;2022-08-30T00:35:33;95921.66;;;14.10;70.16
62634;BME280;48704;50.534;6.442;2022-08-30T00:37:59;95923.06;;;13.99;69.99
62634;BME280;48704;50.534;6.442;2022-08-30T00:40:26;95921.16;;;13.91;70.88
62634;BME280;48704;50.534;6.442;2022-08-30T00:42:54;95920.19;;;13.94;71.43
62634;BME280;48704;50.534;6.442;2022-08-30T00:45:24;95924.22;;;13.67;72.39
62634;BME280;48704;50.534;6.442;2022-08-30T00:47:50;95923.19;;;13.90;71.23
62634;BME280;48704;50.534;6.442;2022-08-30T00:50:19;95928.69;;;13.59;72.58
62634;BME280;48704;50.534;6.442;2022-08-30T00:52:47;95929.31;;;13.48;73.68
62634;BME280;48704;50.534;6.442;2022-08-30T00:55:15;95934.41;;;13.29;74.34
62634;BME280;48704;50.534;6.442;2022-08-30T00:57:43;95932.38;;;13.15;75.39
62634;BME280;48704;50.534;6.442;2022-08-30T01:00:10;95932.94;;;12.84;76.97
62634;BME280;48704;50.534;6.442;2022-08-30T01:02:35;95940.41;;;13.07;75.95
62634;BME280;48704;50.534;6.442;2022-08-30T01:05:03;95944.44;;;13.06;76.16
62634;BME280;48704;50.534;6.442;2022-08-30T01:07:29;95941.03;;;12.97;76.47
62634;BME280;48704;50.534;6.442;2022-08-30T01:09:54;95944.88;;;12.99;77.21
62634;BME280;48704;50.534;6.442;2022-08-30T01:12:19;95941.41;;;12.90;77.64
62634;BME280;48704;50.534;6.442;2022-08-30T01:14:45;95949.03;;;12.89;77.99
62634;BME280;48704;50.534;6.442;2022-08-30T01:17:11;95946.19;;;13.19;76.22
62634;BME280;48704;50.534;6.442;2022-08-30T01:22:29;95943.53;;;13.65;73.45
62634;BME280;48704;50.534;6.442;2022-08-30T01:24:58;95934.97;;;13.33;74.77
62634;BME280;48704;50.534;6.442;2022-08-30T01:27:25;95938.50;;;12.99;76.42
62634;BME280;48704;50.534;6.442;2022-08-30T01:29:52;95940.69;;;13.10;76.52
62634;BME280;48704;50.534;6.442;2022-08-30T01:32:22;95937.31;;;13.05;76.20
62634;BME280;48704;50.534;6.442;2022-08-30T01:34:48;95929.41;;;13.04;77.30
62634;BME280;48704;50.534;6.442;2022-08-30T01:37:24;95938.38;;;13.08;77.13
62634;BME280;48704;50.534;6.442;2022-08-30T01:39:51;95939.44;;;13.11;76.64
62634;BME280;48704;50.534;6.442;2022-08-30T01:42:16;95935.41;;;13.67;73.40
62634;BME280;48704;50.534;6.442;2022-08-30T01:44:45;95938.44;;;13.28;75.43
62634;BME280;48704;50.534;6.442;2022-08-30T01:47:12;95932.69;;;13.17;76.22
62634;BME280;48704;50.534;6.442;2022-08-30T01:49:38;95937.16;;;12.94;78.65
62634;BME280;48704;50.534;6.442;2022-08-30T01:52:05;95933.47;;;13.03;77.75
62634;BME280;48704;50.534;6.442;2022-08-30T01:54:33;95936.53;;;13.05;77.40
62634;BME280;48704;50.534;6.442;2022-08-30T01:56:59;95933.16;;;13.01;77.87
62634;BME280;48704;50.534;6.442;2022-08-30T01:59:25;95940.56;;;12.84;78.54
62634;BME280;48704;50.534;6.442;2022-08-30T02:01:50;95937.75;;;12.84;79.12
62634;BME280;48704;50.534;6.442;2022-08-30T02:04:15;95935.38;;;12.62;79.90
62634;BME280;48704;50.534;6.442;2022-08-30T02:06:42;95937.94;;;12.65;80.40
62634;BME280;48704;50.534;6.442;2022-08-30T02:09:10;95930.63;;;12.38;81.59
62634;BME280;48704;50.534;6.442;2022-08-30T02:11:35;95930.38;;;12.51;81.85
62634;BME280;48704;50.534;6.442;2022-08-30T02:14:01;95934.13;;;12.19;84.64
62634;BME280;48704;50.534;6.442;2022-08-30T02:16:26;95933.53;;;12.15;84.15
62634;BME280;48704;50.534;6.442;2022-08-30T02:18:53;95923.13;;;12.30;83.81
62634;BME280;48704;50.534;6.442;2022-08-30T02:21:19;95926.41;;;12.43;83.08
62634;BME280;48704;50.534;6.442;2022-08-30T02:23:44;95924.88;;;12.42;82.93
62634;BME280;48704;50.534;6.442;2022-08-30T02:26:10;95931.03;;;12.46;82.36
62634;BME280;48704;50.534;6.442;2022-08-30T02:28:36;95929.97;;;12.58;82.00
62634;BME280;48704;50.534;6.442;2022-08-30T02:31:02;95927.84;;;12.53;82.49
62634;BME280;48704;50.534;6.442;2022-08-30T02:33:27;95927.06;;;12.82;80.61
62634;BME280;48704;50.534;6.442;2022-08-30T02:35:52;95929.78;;;12.47;82.29
62634;BME280;48704;50.534;6.442;2022-08-30T02:38:18;95933.03;;;12.31;83.39
62634;BME280;48704;50.534;6.442;2022-08-30T02:40:43;95931.41;;;12.68;81.51
62634;BME280;48704;50.534;6.442;2022-08-30T02:43:09;95932.44;;;12.86;80.31
62634;BME280;48704;50.534;6.442;2022-08-30T02:45:35;95926.56;;;12.84;80.13
62634;BME280;48704;50.534;6.442;2022-08-30T02:48:00;95922.91;;;12.63;81.13
62634;BME280;48704;50.534;6.442;2022-08-30T02:50:26;95927.44;;;12.31;83.73
62634;BME280;48704;50.534;6.442;2022-08-30T02:52:52;95917.53;;;12.30;84.05
62634;BME280;48704;50.534;6.442;2022-08-30T02:55:17;95917.16;;;12.37;84.25
62634;BME280;48704;50.534;6.442;2022-08-30T02:57:43;95917.16;;;12.37;84.77
62634;BME280;48704;50.534;6.442;2022-08-30T03:00:11;95915.72;;;12.42;84.04
62634;BME280;48704;50.534;6.442;2022-08-30T03:02:37;95910.97;;;12.62;83.40
62634;BME280;48704;50.534;6.442;2022-08-30T03:05:05;95915.19;;;12.72;82.50
62634;BME280;48704;50.534;6.442;2022-08-30T03:07:30;95925.59;;;12.87;81.32
62634;BME280;48704;50.534;6.442;2022-08-30T03:09:55;95918.47;;;12.71;81.78
62634;BME280;48704;50.534;6.442;2022-08-30T03:12:22;95915.81;;;12.62;83.30
62634;BME280;48704;50.534;6.442;2022-08-30T03:14:47;95911.38;;;12.55;82.88
62634;BME280;48704;50.534;6.442;2022-08-30T03:17:12;95901.53;;;12.45;84.77
62634;BME280;48704;50.534;6.442;2022-08-30T03:19:38;95908.19;;;12.48;84.09
62634;BME280;48704;50.534;6.442;2022-08-30T03:22:04;95899.72;;;12.42;84.60
62634;BME280;48704;50.534;6.442;2022-08-30T03:24:31;95898.47;;;12.43;84.65
62634;BME280;48704;50.534;6.442;2022-08-30T03:26:56;95900.19;;;12.41;84.55
62634;BME280;48704;50.534;6.442;2022-08-30T03:29:22;95890.38;;;12.45;83.83
62634;BME280;48704;50.534;6.442;2022-08-30T03:31:47;95901.25;;;12.43;84.33
62634;BME280;48704;50.534;6.442;2022-08-30T03:34:13;95908.09;;;12.42;83.75
62634;BME280;48704;50.534;6.442;2022-08-30T03:36:39;95898.81;;;12.65;82.01
62634;BME280;48704;50.534;6.442;2022-08-30T03:39:05;95906.75;;;12.52;83.90
62634;BME280;48704;50.534;6.442;2022-08-30T03:41:32;95907.50;;;12.67;82.13
62634;BME280;48704;50.534;6.442;2022-08-30T03:43:58;95902.63;;;12.97;80.86
62634;BME280;48704;50.534;6.442;2022-08-30T03:46:24;95907.47;;;12.97;80.15
62634;BME280;48704;50.534;6.442;2022-08-30T03:48:50;95905.09;;;13.10;80.15
62634;BME280;48704;50.534;6.442;2022-08-30T03:51:17;95901.22;;;13.07;79.34
62634;BME280;48704;50.534;6.442;2022-08-30T03:53:43;95903.53;;;13.09;79.86
62634;BME280;48704;50.534;6.442;2022-08-30T03:56:08;95905.09;;;13.10;79.38
62634;BME280;48704;50.534;6.442;2022-08-30T03:58:34;95897.19;;;13.09;80.30
62634;BME280;48704;50.534;6.442;2022-08-30T04:01:00;95902.91;;;13.34;77.88
62634;BME280;48704;50.534;6.442;2022-08-30T04:03:25;95905.28;;;13.21;78.87
62634;BME280;48704;50.534;6.442;2022-08-30T04:05:52;95901.38;;;13.33;78.28
62634;BME280;48704;50.534;6.442;2022-08-30T04:08:18;95900.19;;;13.40;77.31
62634;BME280;48704;50.534;6.442;2022-08-30T04:10:45;95900.41;;;13.36;77.67
62634;BME280;48704;50.534;6.442;2022-08-30T04:13:11;95899.47;;;13.25;77.95
62634;BME280;48704;50.534;6.442;2022-08-30T04:15:36;95906.34;;;13.24;77.50
62634;BME280;48704;50.534;6.442;2022-08-30T04:18:01;95907.41;;;13.12;78.63
62634;BME280;48704;50.534;6.442;2022-08-30T04:20:27;95903.81;;;13.11;78.88
62634;BME280;48704;50.534;6.442;2022-08-30T04:22:52;95905.28;;;13.21;78.40
62634;BME280;48704;50.534;6.442;2022-08-30T04:25:18;95902.97;;;13.05;79.71
62634;BME280;48704;50.534;6.442;2022-08-30T04:27:45;95904.94;;;12.99;80.31
62634;BME280;48704;50.534;6.442;2022-08-30T04:30:11;95908.13;;;12.92;81.21
62634;BME280;48704;50.534;6.442;2022-08-30T04:32:37;95907.56;;;12.88;80.71
62634;BME280;48704;50.534;6.442;2022-08-30T04:35:03;95909.38;;;12.91;81.22
62634;BME280;48704;50.534;6.442;2022-08-30T04:37:29;95906.50;;;12.85;81.92
62634;BME280;48704;50.534;6.442;2022-08-30T04:39:58;95903.63;;;12.80;81.44
62634;BME280;48704;50.534;6.442;2022-08-30T04:42:27;95908.72;;;12.81;82.04
62634;BME280;48704;50.534;6.442;2022-08-30T04:44:57;95911.31;;;12.85;81.67
62634;BME280;48704;50.534;6.442;2022-08-30T04:47:22;95922.91;;;12.78;81.92
62634;BME280;48704;50.534;6.442;2022-08-30T04:49:47;95918.28;;;12.75;82.24
62634;BME280;48704;50.534;6.442;2022-08-30T04:52:13;95918.84;;;12.79;82.20
62634;BME280;48704;50.534;6.442;2022-08-30T04:54:38;95924.44;;;12.79;82.30
62634;BME280;48704;50.534;6.442;2022-08-30T04:57:05;95922.72;;;12.81;82.18
62634;BME280;48704;50.534;6.442;2022-08-30T04:59:31;95927.13;;;12.88;81.46
62634;BME280;48704;50.534;6.442;2022-08-30T05:01:57;95929.84;;;12.97;81.01
62634;BME280;48704;50.534;6.442;2022-08-30T05:04:22;95928.25;;;13.11;79.61
62634;BME280;48704;50.534;6.442;2022-08-30T05:06:48;95926.31;;;13.17;79.55
62634;BME280;48704;50.534;6.442;2022-08-30T05:09:13;95928.22;;;13.25;79.46
62634;BME280;48704;50.534;6.442;2022-08-30T05:11:39;95934.97;;;13.33;79.14
62634;BME280;48704;50.534;6.442;2022-08-30T05:14:07;95942.25;;;13.46;78.16
62634;BME280;48704;50.534;6.442;2022-08-30T05:16:32;95939.09;;;13.58;77.49
62634;BME280;48704;50.534;6.442;2022-08-30T05:18:58;95936.19;;;13.67;75.56
62634;BME280;48704;50.534;6.442;2022-08-30T05:21:25;95938.19;;;13.87;74.71
62634;BME280;48704;50.534;6.442;2022-08-30T05:23:53;95940.28;;;13.92;74.97
62634;BME280;48704;50.534;6.442;2022-08-30T05:26:23;95932.88;;;13.89;76.58
62634;BME280;48704;50.534;6.442;2022-08-30T05:28:49;95931.59;;;13.90;76.85
62634;BME280;48704;50.534;6.442;2022-08-30T05:31:21;95928.03;;;13.90;77.04
62634;BME280;48704;50.534;6.442;2022-08-30T05:33:48;95930.28;;;13.86;78.29
62634;BME280;48704;50.534;6.442;2022-08-30T05:36:15;95940.84;;;13.56;79.20
62634;BME280;48704;50.534;6.442;2022-08-30T05:38:41;95935.78;;;13.19;81.88
62634;BME280;48704;50.534;6.442;2022-08-30T05:41:06;95929.88;;;13.52;79.00
62634;BME280;48704;50.534;6.442;2022-08-30T05:43:32;95945.59;;;13.50;77.95
62634;BME280;48704;50.534;6.442;2022-08-30T05:46:18;95936.78;;;13.36;78.47
62634;BME280;48704;50.534;6.442;2022-08-30T05:48:44;95945.59;;;13.29;79.89
62634;BME280;48704;50.534;6.442;2022-08-30T05:51:12;95943.22;;;13.43;79.58
62634;BME280;48704;50.534;6.442;2022-08-30T05:53:39;95946.03;;;13.63;77.26
62634;BME280;48704;50.534;6.442;2022-08-30T05:56:07;95945.91;;;13.72;76.13
62634;BME280;48704;50.534;6.442;2022-08-30T05:58:33;95939.06;;;13.73;75.53
62634;BME280;48704;50.534;6.442;2022-08-30T06:00:59;95948.72;;;13.72;75.92
62634;BME280;48704;50.534;6.442;2022-08-30T06:03:25;95941.09;;;13.73;76.85
62634;BME280;48704;50.534;6.442;2022-08-30T06:05:51;95930.84;;;13.90;76.88
62634;BME280;48704;50.534;6.442;2022-08-30T06:08:16;95935.53;;;13.98;76.97
62634;BME280;48704;50.534;6.442;2022-08-30T06:10:42;95933.63;;;14.10;76.56
62634;BME280;48704;50.534;6.442;2022-08-30T06:13:08;95939.13;;;14.25;75.03
62634;BME280;48704;50.534;6.442;2022-08-30T06:15:34;95935.75;;;14.41;74.36
62634;BME280;48704;50.534;6.442;2022-08-30T06:17:59;95948.03;;;14.49;74.64
62634;BME280;48704;50.534;6.442;2022-08-30T06:20:25;95936.38;;;14.56;74.18
62634;BME280;48704;50.534;6.442;2022-08-30T06:22:50;95942.53;;;14.60;74.90
62634;BME280;48704;50.534;6.442;2022-08-30T06:25:19;95928.81;;;14.62;74.92
62634;BME280;48704;50.534;6.442;2022-08-30T06:27:44;95939.34;;;14.73;75.03
62634;BME280;48704;50.534;6.442;2022-08-30T06:30:09;95941.88;;;14.71;76.90
62634;BME280;48704;50.534;6.442;2022-08-30T06:32:36;95943.09;;;14.64;76.09
62634;BME280;48704;50.534;6.442;2022-08-30T06:35:03;95939.31;;;14.99;74.00
62634;BME280;48704;50.534;6.442;2022-08-30T06:37:28;95944.75;;;14.77;75.53
62634;BME280;48704;50.534;6.442;2022-08-30T06:39:55;95940.56;;;14.98;74.69
62634;BME280;48704;50.534;6.442;2022-08-30T06:42:21;95935.22;;;15.00;75.55
62634;BME280;48704;50.534;6.442;2022-08-30T06:44:47;95937.03;;;15.03;75.54
62634;BME280;48704;50.534;6.442;2022-08-30T06:47:13;95939.38;;;15.10;74.30
62634;BME280;48704;50.534;6.442;2022-08-30T06:49:38;95946.59;;;15.22;73.64
62634;BME280;48704;50.534;6.442;2022-08-30T06:52:04;95941.06;;;15.33;72.48
62634;BME280;48704;50.534;6.442;2022-08-30T06:54:29;95945.25;;;15.49;72.11
62634;BME280;48704;50.534;6.442;2022-08-30T06:56:54;95946.81;;;15.56;72.00
62634;BME280;48704;50.534;6.442;2022-08-30T06:59:19;95949.50;;;15.76;70.59
62634;BME280;48704;50.534;6.442;2022-08-30T07:01:45;95947.25;;;15.86;69.05
62634;BME280;48704;50.534;6.442;2022-08-30T07:04:10;95951.63;;;15.92;69.17
62634;BME280;48704;50.534;6.442;2022-08-30T07:06:35;95952.72;;;16.12;67.64
62634;BME280;48704;50.534;6.442;2022-08-30T07:09:01;95954.81;;;16.39;66.99
62634;BME280;48704;50.534;6.442;2022-08-30T07:11:33;95962.09;;;16.68;65.38
62634;BME280;48704;50.534;6.442;2022-08-30T07:13:59;95955.94;;;17.09;64.40
62634;BME280;48704;50.534;6.442;2022-08-30T07:16:25;95956.44;;;17.41;63.11
62634;BME280;48704;50.534;6.442;2022-08-30T07:18:51;95949.75;;;17.66;62.50
62634;BME280;48704;50.534;6.442;2022-08-30T07:21:22;95951.22;;;17.89;62.44
62634;BME280;48704;50.534;6.442;2022-08-30T07:23:47;95957.81;;;18.09;61.40
62634;BME280;48704;50.534;6.442;2022-08-30T07:26:14;95956.69;;;18.28;59.06
62634;BME280;48704;50.534;6.442;2022-08-30T07:28:42;95955.06;;;18.44;59.46
62634;BME280;48704;50.534;6.442;2022-08-30T07:31:09;95945.91;;;18.32;60.53
62634;BME280;48704;50.534;6.442;2022-08-30T07:33:34;95956.06;;;18.52;59.71
62634;BME280;48704;50.534;6.442;2022-08-30T07:36:00;95960.06;;;18.74;58.75
62634;BME280;48704;50.534;6.442;2022-08-30T07:38:26;95954.09;;;18.83;58.02
62634;BME280;48704;50.534;6.442;2022-08-30T07:40:51;95964.59;;;18.88;57.44
62634;BME280;48704;50.534;6.442;2022-08-30T07:43:17;95960.09;;;19.03;56.13
62634;BME280;48704;50.534;6.442;2022-08-30T07:45:42;95955.97;;;19.34;55.63
62634;BME280;48704;50.534;6.442;2022-08-30T07:48:08;95964.38;;;19.40;55.43
62634;BME280;48704;50.534;6.442;2022-08-30T07:50:36;95963.75;;;19.58;54.77
62634;BME280;48704;50.534;6.442;2022-08-30T07:53:02;95965.28;;;19.59;54.40
62634;BME280;48704;50.534;6.442;2022-08-30T07:55:28;95969.34;;;19.64;54.59
62634;BME280;48704;50.534;6.442;2022-08-30T07:57:53;95968.09;;;19.59;54.01
62634;BME280;48704;50.534;6.442;2022-08-30T08:00:19;95963.78;;;19.77;53.83
62634;BME280;48704;50.534;6.442;2022-08-30T08:02:44;95966.28;;;19.86;53.66
62634;BME280;48704;50.534;6.442;2022-08-30T08:05:10;95968.28;;;19.91;53.75
62634;BME280;48704;50.534;6.442;2022-08-30T08:07:35;95978.16;;;19.79;53.88
62634;BME280;48704;50.534;6.442;2022-08-30T08:10:01;95970.53;;;19.44;54.83
62634;BME280;48704;50.534;6.442;2022-08-30T08:12:27;95960.50;;;19.97;53.95
62634;BME280;48704;50.534;6.442;2022-08-30T08:14:53;95967.03;;;20.30;53.69
62634;BME280;48704;50.534;6.442;2022-08-30T08:17:18;95963.47;;;20.48;52.56
62634;BME280;48704;50.534;6.442;2022-08-30T08:19:43;95967.31;;;20.69;52.28
62634;BME280;48704;50.534;6.442;2022-08-30T08:22:09;95959.78;;;20.91;51.43
62634;BME280;48704;50.534;6.442;2022-08-30T08:24:35;95972.78;;;20.81;51.34
62634;BME280;48704;50.534;6.442;2022-08-30T08:27:00;95961.91;;;20.85;50.99
62634;BME280;48704;50.534;6.442;2022-08-30T08:29:26;95961.34;;;20.73;51.70
62634;BME280;48704;50.534;6.442;2022-08-30T08:31:52;95959.75;;;20.78;52.25
62634;BME280;48704;50.534;6.442;2022-08-30T08:34:18;95965.28;;;21.02;51.12
62634;BME280;48704;50.534;6.442;2022-08-30T08:36:47;95961.69;;;21.33;51.32
62634;BME280;48704;50.534;6.442;2022-08-30T08:39:13;95972.66;;;21.56;50.04
62634;BME280;48704;50.534;6.442;2022-08-30T08:42:07;95968.50;;;21.44;50.83
62634;BME280;48704;50.534;6.442;2022-08-30T08:45:06;95971.34;;;21.57;50.10
62634;BME280;48704;50.534;6.442;2022-08-30T08:47:39;95965.50;;;21.81;49.52
62634;BME280;48704;50.534;6.442;2022-08-30T08:50:15;95957.97;;;21.84;48.85
62634;BME280;48704;50.534;6.442;2022-08-30T08:53:02;95968.16;;;22.06;49.11
62634;BME280;48704;50.534;6.442;2022-08-30T08:55:49;95965.31;;;22.19;47.96
62634;BME280;48704;50.534;6.442;2022-08-30T08:58:53;95965.25;;;22.58;47.59
62634;BME280;48704;50.534;6.442;2022-08-30T09:01:22;95969.25;;;22.89;46.79
62634;BME280;48704;50.534;6.442;2022-08-30T09:03:49;95956.84;;;23.00;45.87
62634;BME280;48704;50.534;6.442;2022-08-30T09:06:34;95960.47;;;22.53;46.67
62634;BME280;48704;50.534;6.442;2022-08-30T09:09:01;95962.78;;;22.76;45.90
62634;BME280;48704;50.534;6.442;2022-08-30T09:11:30;95954.78;;;23.21;45.23
62634;BME280;48704;50.534;6.442;2022-08-30T09:13:57;95955.88;;;23.18;45.44
62634;BME280;48704;50.534;6.442;2022-08-30T09:16:59;95958.44;;;23.09;45.51
62634;BME280;48704;50.534;6.442;2022-08-30T09:19:31;95961.16;;;22.67;45.85
62634;BME280;48704;50.534;6.442;2022-08-30T09:21:59;95960.63;;;22.68;45.62
62634;BME280;48704;50.534;6.442;2022-08-30T09:24:25;95954.88;;;22.61;44.81
62634;BME280;48704;50.534;6.442;2022-08-30T09:26:51;95957.94;;;22.63;45.13
62634;BME280;48704;50.534;6.442;2022-08-30T09:29:18;95950.72;;;22.62;45.41
62634;BME280;48704;50.534;6.442;2022-08-30T09:31:49;95957.00;;;22.21;45.88
62634;BME280;48704;50.534;6.442;2022-08-30T09:34:20;95960.47;;;22.53;46.16
62634;BME280;48704;50.534;6.442;2022-08-30T09:36:52;95967.84;;;22.69;45.70
62634;BME280;48704;50.534;6.442;2022-08-30T09:39:33;95968.81;;;22.72;45.36
62634;BME280;48704;50.534;6.442;2022-08-30T09:42:13;95958.53;;;23.16;44.33
62634;BME280;48704;50.534;6.442;2022-08-30T09:44:39;95950.75;;;22.96;43.89
62634;BME280;48704;50.534;6.442;2022-08-30T09:47:35;95953.53;;;23.09;44.49
62634;BME280;48704;50.534;6.442;2022-08-30T09:50:17;95948.19;;;23.06;44.37
62634;BME280;48704;50.534;6.442;2022-08-30T09:53:14;95949.63;;;23.82;42.61
62634;BME280;48704;50.534;6.442;2022-08-30T10:03:40;95945.63;;;24.86;40.30
62634;BME280;48704;50.534;6.442;2022-08-30T10:06:50;95947.50;;;24.76;40.73
62634;BME280;48704;50.534;6.442;2022-08-30T10:09:34;95946.56;;;24.88;40.30
62634;BME280;48704;50.534;6.442;2022-08-30T10:12:20;95944.09;;;24.85;40.36
62634;BME280;48704;50.534;6.442;2022-08-30T10:14:59;95940.41;;;25.36;39.71
62634;BME280;48704;50.534;6.442;2022-08-30T10:17:40;95941.16;;;24.62;39.85
62634;BME280;48704;50.534;6.442;2022-08-30T10:25:39;95942.72;;;24.27;40.92
62634;BME280;48704;50.534;6.442;2022-08-30T10:28:15;95941.06;;;24.39;40.82
62634;BME280;48704;50.534;6.442;2022-08-30T10:30:44;95933.41;;;24.26;40.67
62634;BME280;48704;50.534;6.442;2022-08-30T10:33:25;95941.41;;;23.99;41.38
62634;BME280;48704;50.534;6.442;2022-08-30T10:35:56;95935.63;;;24.56;40.46
62634;BME280;48704;50.534;6.442;2022-08-30T10:40:52;95934.72;;;25.20;39.20
62634;BME280;48704;50.534;6.442;2022-08-30T10:43:55;95946.38;;;26.61;36.54
62634;BME280;48704;50.534;6.442;2022-08-30T10:46:46;95935.69;;;25.84;37.10
62634;BME280;48704;50.534;6.442;2022-08-30T10:49:24;95935.34;;;24.83;38.65
62634;BME280;48704;50.534;6.442;2022-08-30T10:51:56;95936.63;;;25.41;37.98
62634;BME280;48704;50.534;6.442;2022-08-30T10:57:28;95940.38;;;25.13;38.60
62634;BME280;48704;50.534;6.442;2022-08-30T10:59:57;95936.25;;;25.52;38.03
62634;BME280;48704;50.534;6.442;2022-08-30T11:08:18;95931.22;;;28.85;32.01
62634;BME280;48704;50.534;6.442;2022-08-30T11:13:48;95925.63;;;29.77;30.41
62634;BME280;48704;50.534;6.442;2022-08-30T11:16:15;95923.97;;;29.74;30.51
62634;BME280;48704;50.534;6.442;2022-08-30T11:18:49;95922.88;;;31.03;28.36
62634;BME280;48704;50.534;6.442;2022-08-30T11:21:33;95926.09;;;30.58;29.26
62634;BME280;48704;50.534;6.442;2022-08-30T11:24:11;95921.38;;;30.53;28.78
62634;BME280;48704;50.534;6.442;2022-08-30T11:42:34;95907.63;;;30.71;27.93
62634;BME280;48704;50.534;6.442;2022-08-30T11:47:54;95900.66;;;30.45;28.20
62634;BME280;48704;50.534;6.442;2022-08-30T12:01:20;95902.50;;;30.70;28.44
62634;BME280;48704;50.534;6.442;2022-08-30T12:03:58;95895.84;;;30.77;27.87
62634;BME280;48704;50.534;6.442;2022-08-30T12:14:49;95894.31;;;30.76;27.42
62634;BME280;48704;50.534;6.442;2022-08-30T12:20:14;95887.25;;;29.82;29.26
62634;BME280;48704;50.534;6.442;2022-08-30T12:22:40;95891.81;;;31.11;27.36
62634;BME280;48704;50.534;6.442;2022-08-30T12:25:23;95892.38;;;31.29;26.82
62634;BME280;48704;50.534;6.442;2022-08-30T12:27:49;95887.50;;;31.41;27.17
62634;BME280;48704;50.534;6.442;2022-08-30T12:30:23;95884.00;;;31.42;26.87
62634;BME280;48704;50.534;6.442;2022-08-30T12:32:50;95897.91;;;31.86;26.55
62634;BME280;48704;50.534;6.442;2022-08-30T12:35:19;95883.97;;;30.92;26.97
62634;BME280;48704;50.534;6.442;2022-08-30T12:38:04;95871.84;;;31.84;26.27
62634;BME280;48704;50.534;6.442;2022-08-30T12:40:30;95881.28;;;31.75;26.34
62634;BME280;48704;50.534;6.442;2022-08-30T12:43:04;95878.50;;;32.08;25.68
62634;BME280;48704;50.534;6.442;2022-08-30T12:45:35;95872.94;;;32.43;25.71
62634;BME280;48704;50.534;6.442;2022-08-30T12:48:07;95869.44;;;31.81;26.20
62634;BME280;48704;50.534;6.442;2022-08-30T12:50:37;95871.44;;;32.21;25.81
62634;BME280;48704;50.534;6.442;2022-08-30T12:53:10;95869.16;;;32.74;25.03
62634;BME280;48704;50.534;6.442;2022-08-30T12:56:09;95871.00;;;33.47;24.38
62634;BME280;48704;50.534;6.442;2022-08-30T12:58:54;95860.56;;;33.88;23.52
62634;BME280;48704;50.534;6.442;2022-08-30T13:01:31;95868.53;;;33.08;24.56
62634;BME280;48704;50.534;6.442;2022-08-30T13:04:21;95872.94;;;32.43;25.53
62634;BME280;48704;50.534;6.442;2022-08-30T13:06:48;95858.88;;;32.71;24.91
62634;BME280;48704;50.534;6.442;2022-08-30T13:09:25;95862.91;;;32.02;25.67
62634;BME280;48704;50.534;6.442;2022-08-30T13:11:52;95847.72;;;32.65;25.06
62634;BME280;48704;50.534;6.442;2022-08-30T13:17:26;95855.81;;;32.57;25.15
62634;BME280;48704;50.534;6.442;2022-08-30T13:20:03;95851.56;;;32.25;25.57
62634;BME280;48704;50.534;6.442;2022-08-30T13:22:34;95848.97;;;33.18;24.30
62634;BME280;48704;50.534;6.442;2022-08-30T13:25:00;95856.13;;;33.17;24.32
62634;BME280;48704;50.534;6.442;2022-08-30T13:27:27;95853.47;;;32.98;24.13
62634;BME280;48704;50.534;6.442;2022-08-30T13:29:52;95846.09;;;33.18;24.32
62634;BME280;48704;50.534;6.442;2022-08-30T13:32:18;95845.63;;;33.57;24.15
62634;BME280;48704;50.534;6.442;2022-08-30T13:34:44;95836.78;;;33.08;25.00
62634;BME280;48704;50.534;6.442;2022-08-30T13:37:22;95841.34;;;32.45;25.04
62634;BME280;48704;50.534;6.442;2022-08-30T13:39:48;95840.75;;;31.83;25.76
62634;BME280;48704;50.534;6.442;2022-08-30T13:42:14;95839.59;;;31.67;25.96
62634;BME280;48704;50.534;6.442;2022-08-30T13:44:40;95827.81;;;31.32;26.37
62634;BME280;48704;50.534;6.442;2022-08-30T13:47:06;95830.63;;;31.51;26.67
62634;BME280;48704;50.534;6.442;2022-08-30T13:49:34;95838.78;;;31.85;26.06
62634;BME280;48704;50.534;6.442;2022-08-30T13:52:01;95828.34;;;31.80;26.15
62634;BME280;48704;50.534;6.442;2022-08-30T13:54:27;95824.13;;;31.41;27.05
62634;BME280;48704;50.534;6.442;2022-08-30T13:56:53;95828.19;;;30.18;27.70
62634;BME280;48704;50.534;6.442;2022-08-30T13:59:19;95835.13;;;30.63;27.75
62634;BME280;48704;50.534;6.442;2022-08-30T14:01:46;95840.44;;;30.67;27.44
62634;BME280;48704;50.534;6.442;2022-08-30T14:04:12;95835.19;;;31.13;27.07
62634;BME280;48704;50.534;6.442;2022-08-30T14:06:37;95828.97;;;31.07;26.99
62634;BME280;48704;50.534;6.442;2022-08-30T14:09:03;95829.06;;;32.45;25.41
62634;BME280;48704;50.534;6.442;2022-08-30T14:11:31;95831.22;;;32.89;24.83
62634;BME280;48704;50.534;6.442;2022-08-30T14:13:57;95830.31;;;31.06;27.06
62634;BME280;48704;50.534;6.442;2022-08-30T14:16:22;95833.34;;;31.08;27.05
62634;BME280;48704;50.534;6.442;2022-08-30T14:18:47;95840.53;;;31.69;26.43
62634;BME280;48704;50.534;6.442;2022-08-30T14:21:13;95836.69;;;31.98;25.82
62634;BME280;48704;50.534;6.442;2022-08-30T14:23:38;95828.78;;;33.65;24.48